TAF and METAR

Could not understand the following METAR

YNWN 250000Z AUTO 11003KT 9999 // NCD 17/M00 Q1022
No TAF available for Newman Airport